O'Brien, TX (79539)

11:42 AM CDT on October 02, 2014 (GMT -0500)
WT_Meso 3NW Knox City | Change Station
CLOSE
Current Station
Personal Weather Station
Location: Knox City, TX
Elevation: 1470 ft
Nearby Weather Stations

Elev 1470 ft 33.45 °N, 99.86 °W | Updated 47 minutes ago

Clear
Clear
73 °F
Feels Like 77 °F
N
13
Wind Variable Wind from NNW
Gusts 18.0 mph

Today
High -- | Low -- °F
--% Chance of Precip.
Yesterday
High -- | Low -- °F
Precip. -- in
7:34 AM 7:22 PM
First Quarter, 60% visible
Pressure 29.71 in
Visibility 10.0 miles
Clouds Few 13000 ft
Heat Index 77 °F
Dew Point 50 °F
Humidity 44%
Rainfall -999.00 in
Snow Depth Not available.
UV 5 out of 12
Pollen 9.40 out of 12
Air Quality Not available.
Flu Activity Not available.
METAR KDYS 021558Z AUTO 24018G21KT 10SM FEW130 30/19 A2986 RMK AO2 SLP061 T02970188 $

More Conditions Fewer Conditions

Pressure 29.71 in
Visibility 10.0 miles
Clouds Few 13000 ft
Heat Index 77 °F
Dew Point 50 °F
Humidity 44%
Rainfall -999.00 in
Snow Depth Not available.
UV 5 out of 12
Pollen 9.40 out of 12
Air Quality Not available.
Flu Activity Not available.
METAR KDYS 021558Z AUTO 24018G21KT 10SM FEW130 30/19 A2986 RMK AO2 SLP061 T02970188 $

More Conditions Fewer Conditions

10-Day Weather Forecast

Almanac

Astronomy

Oct. 02, 2014 Rise Set
Actual Time 7:34 AM CDT 7:22 PM CDT
Civil Twilight 7:09 AM CDT 7:47 PM CDT
Nautical Twilight 6:40 AM CDT 8:15 PM CDT
Astronomical Twilight 6:12 AM CDT 8:44 PM CDT
Moon 3:14 PM CDT 1:09 AM CDT
Length of Visible Light 12h 37m
Length of Day
11h 48m
Tomorrow will be 2m 2s shorter.
First Quarter, 60% of the Moon is Illuminated
Today
First Quarter
Oct 8
Full
Oct 15
Last Quarter
Oct 23
New
Oct 30
First Quarter

Today's Extremes

State Highs State Lows

Community

WunderPhotos

Upload Photos

1,758,294 photos uploaded!

WunderBlogs® & News

Nearby

Snow Depth

Station Depth Elevation
No new snow has been reported.

Earthquake Activity

City Distance Mag. Time & Date
No recent earthquake activity has been reported nearby.
Minimum magnitude displayed is 2.5.

Coastal Water Temperatures

Place Temperature
No Stations Reporting

Nearby Weather Stations